Time;durP1;ratioP1;P1;durP2;ratioP2;P2;SDS_P1;SDS_P2;PMS_P1;PMS_P2;Temp;Humidity;BMP_temperature;BMP_pressure;BME280_temperature;BME280_humidity;BME280_pressure;Samples;Min_cycle;Max_cycle;Signal;HPM_P1;HPM_P2
2022/10/15 00:00:48;;;;;;;27.67;21.30;;;;;;;11.43;100.00;100652.84;5256852;28;20056;-72
2022/10/15 00:03:19;;;;;;;25.80;20.73;;;;;;;11.39;100.00;100654.84;5257963;28;20037;-72
2022/10/15 00:05:51;;;;;;;23.93;21.13;;;;;;;11.32;100.00;100661.41;5257390;28;20032;-72
2022/10/15 00:08:22;;;;;;;27.07;21.60;;;;;;;11.32;100.00;100661.41;5256713;28;20029;-72
2022/10/15 00:10:53;;;;;;;22.97;20.53;;;;;;;11.41;100.00;100659.97;5257275;28;20040;-71
2022/10/15 00:13:24;;;;;;;24.33;20.93;;;;;;;11.50;100.00;100662.81;5256993;28;20083;-72
2022/10/15 00:15:56;;;;;;;25.80;21.37;;;;;;;11.34;100.00;100655.16;5255938;28;20040;-71
2022/10/15 00:18:27;;;;;;;22.47;19.80;;;;;;;11.41;100.00;100657.34;5257372;28;20040;-72
2022/10/15 00:20:58;;;;;;;25.50;22.33;;;;;;;11.32;100.00;100656.16;5257185;28;20048;-73
2022/10/15 00:23:30;;;;;;;27.30;21.90;;;;;;;11.41;100.00;100665.22;5256615;28;20115;-72
2022/10/15 00:26:16;;;;;;;26.70;21.27;;;;;;;11.42;100.00;100662.50;5257571;28;20160;-72
2022/10/15 00:28:49;;;;;;;25.50;20.53;;;;;;;11.44;100.00;100657.13;5256920;28;20116;-72
2022/10/15 00:31:23;;;;;;;24.13;20.90;;;;;;;11.46;100.00;100653.47;5256843;28;20029;-73
2022/10/15 00:33:57;;;;;;;27.23;21.67;;;;;;;11.47;100.00;100649.91;5257382;28;20025;-71
2022/10/15 00:36:31;;;;;;;27.00;22.65;;;;;;;11.53;100.00;100668.78;5256617;28;20545;-72
2022/10/15 00:39:04;;;;;;;;;;;;;;;11.70;100.00;100671.13;5257512;28;20029;-71
2022/10/15 00:41:40;;;;;;;25.50;21.37;;;;;;;11.57;100.00;100654.53;5256929;28;19921;-72
2022/10/15 00:44:21;;;;;;;30.90;21.43;;;;;;;11.64;100.00;100657.59;5257464;28;20035;-71
2022/10/15 00:47:01;;;;;;;23.63;21.13;;;;;;;11.55;100.00;100669.53;5256943;28;20025;-71
2022/10/15 00:49:39;;;;;;;23.60;21.10;;;;;;;11.53;100.00;100664.41;5257508;28;20112;-72
2022/10/15 00:52:18;;;;;;;24.73;21.57;;;;;;;11.56;100.00;100664.19;5254650;28;20053;-72
2022/10/15 00:54:53;;;;;;;26.33;22.20;;;;;;;11.59;100.00;100676.28;5257090;28;20056;-71
2022/10/15 00:57:25;;;;;;;25.00;21.47;;;;;;;11.60;100.00;100664.81;5257138;28;20033;-71
2022/10/15 01:00:01;;;;;;;28.57;22.57;;;;;;;11.67;100.00;100670.50;5255429;28;20475;-72
2022/10/15 01:02:32;;;;;;;27.37;21.57;;;;;;;11.50;100.00;100665.44;5256651;28;20021;-72
2022/10/15 01:05:04;;;;;;;24.47;21.83;;;;;;;11.71;100.00;100658.88;5256832;28;20498;-71
2022/10/15 01:07:35;;;;;;;26.03;21.83;;;;;;;11.72;100.00;100668.41;5255631;28;20032;-72
2022/10/15 01:10:10;;;;;;;24.87;22.33;;;;;;;11.83;100.00;100667.69;5256788;28;20074;-71
2022/10/15 01:13:10;;;;;;;24.67;21.88;;;;;;;11.90;100.00;100673.34;5256876;28;20083;-71
2022/10/15 01:15:50;;;;;;;23.57;21.10;;;;;;;11.93;100.00;100662.63;5254907;28;20386;-71
2022/10/15 01:18:30;;;;;;;25.97;23.20;;;;;;;11.93;100.00;100655.59;5254819;28;20514;-71
2022/10/15 01:21:12;;;;;;;25.90;23.00;;;;;;;11.93;100.00;100652.13;5256424;28;20074;-71
2022/10/15 01:24:12;;;;;;;24.93;21.37;;;;;;;11.97;100.00;100656.25;5254788;28;20029;-71
2022/10/15 01:27:14;;;;;;;23.87;21.37;;;;;;;11.99;100.00;100649.06;5255790;28;20040;-72
2022/10/15 01:30:19;;;;;;;25.00;21.03;;;;;;;12.03;100.00;100639.19;5255430;28;20032;-72
2022/10/15 01:32:50;;;;;;;26.10;20.75;;;;;;;12.03;100.00;100632.19;5254537;28;20487;-71
2022/10/15 01:35:43;;;;;;;25.30;21.87;;;;;;;12.08;100.00;100631.84;5254434;28;20040;-71
2022/10/15 01:38:34;;;;;;;24.30;21.80;;;;;;;12.04;100.00;100625.16;5255387;28;20038;-72
2022/10/15 01:41:15;;;;;;;24.17;21.57;;;;;;;12.06;100.00;100626.72;5256124;28;20112;-72
2022/10/15 01:44:01;;;;;;;23.13;20.73;;;;;;;12.05;100.00;100617.16;5254406;28;20028;-72
2022/10/15 01:46:41;;;;;;;23.23;20.63;;;;;;;12.08;100.00;100630.06;5256166;28;20086;-71
2022/10/15 01:49:20;;;;;;;24.23;21.57;;;;;;;12.07;100.00;100624.94;5254238;28;20033;-71
2022/10/15 01:51:53;;;;;;;23.50;20.73;;;;;;;12.08;100.00;100626.59;5253676;28;20488;-72
2022/10/15 01:54:26;;;;;;;21.43;19.23;;;;;;;12.07;100.00;100620.53;5256116;28;20071;-71
2022/10/15 01:56:58;;;;;;;27.30;22.67;;;;;;;12.01;100.00;100615.69;5255438;28;20025;-72
2022/10/15 01:59:31;;;;;;;26.43;20.63;;;;;;;12.11;100.00;100621.19;5256340;28;20271;-71
2022/10/15 02:02:02;;;;;;;25.30;20.30;;;;;;;12.14;100.00;100617.50;5255464;28;20047;-72
2022/10/15 02:04:34;;;;;;;23.67;21.00;;;;;;;12.12;100.00;100614.13;5254051;28;20052;-71
2022/10/15 02:07:12;;;;;;;22.33;19.93;;;;;;;12.17;100.00;100617.28;5255194;28;20476;-71
2022/10/15 02:10:06;;;;;;;21.57;19.27;;;;;;;12.15;100.00;100616.56;5255563;28;20420;-71
2022/10/15 02:13:16;;;;;;;22.98;20.50;;;;;;;12.19;100.00;100618.00;5255015;28;20059;-71
2022/10/15 02:15:57;;;;;;;21.73;19.63;;;;;;;12.17;100.00;100606.78;5234855;28;20029;-72
2022/10/15 02:18:34;;;;;;;24.30;21.80;;;;;;;12.16;100.00;100607.72;5246511;28;20555;-72
2022/10/15 02:21:11;;;;;;;23.53;20.47;;;;;;;12.10;100.00;100604.59;5254032;28;20072;-72
2022/10/15 02:23:55;;;;;;;27.47;22.07;;;;;;;12.18;100.00;100605.84;5255036;28;20047;-72
2022/10/15 02:26:29;;;;;;;21.73;19.57;;;;;;;12.11;100.00;100600.19;5255541;28;20017;-71
2022/10/15 02:29:03;;;;;;;31.00;22.48;;;;;;;12.10;100.00;100590.63;5254836;28;20156;-72
2022/10/15 02:31:37;;;;;;;21.58;19.30;;;;;;;12.13;100.00;100592.19;5254470;28;20037;-72
2022/10/15 02:34:14;;;;;;;25.15;21.92;;;;;;;12.15;100.00;100591.13;5254163;28;20360;-72
2022/10/15 02:36:46;;;;;;;25.90;22.70;;;;;;;12.18;100.00;100590.91;5253751;28;20372;-72
2022/10/15 02:39:22;;;;;;;23.20;20.70;;;;;;;12.19;100.00;100583.88;5254949;28;20352;-72
2022/10/15 02:41:55;;;;;;;23.23;20.77;;;;;;;12.15;100.00;100578.00;5254203;28;20040;-72
2022/10/15 02:44:27;;;;;;;24.87;22.13;;;;;;;12.18;100.00;100577.78;5254529;28;20596;-72
2022/10/15 02:46:58;;;;;;;23.97;21.43;;;;;;;12.06;100.00;100563.72;5254574;28;20033;-72
2022/10/15 02:49:30;;;;;;;23.83;20.97;;;;;;;12.18;100.00;100569.09;5253047;28;20032;-71
2022/10/15 02:52:01;;;;;;;24.27;21.77;;;;;;;12.15;100.00;100564.06;5253473;28;20392;-71
2022/10/15 02:54:32;;;;;;;26.60;23.40;;;;;;;12.07;100.00;100561.94;5255097;28;20033;-71
2022/10/15 02:57:04;;;;;;;26.03;23.23;;;;;;;12.15;100.00;100564.06;5253047;28;20452;-71
2022/10/15 02:59:35;;;;;;;28.83;25.87;;;;;;;11.97;100.00;100531.09;5254357;28;20179;-71
2022/10/15 03:02:06;;;;;;;28.07;23.57;;;;;;;12.14;100.00;100552.72;5254632;28;20111;-72
2022/10/15 03:04:38;;;;;;;26.90;24.10;;;;;;;12.15;100.00;100548.31;5252701;28;20040;-72
2022/10/15 03:07:09;;;;;;;26.03;23.30;;;;;;;12.18;100.00;100546.28;5253865;28;20022;-71
2022/10/15 03:09:40;;;;;;;25.83;23.27;;;;;;;12.20;100.00;100548.81;5254007;28;20387;-71
2022/10/15 03:12:12;;;;;;;27.57;23.60;;;;;;;12.18;100.00;100543.66;5254595;28;20070;-71
2022/10/15 03:14:43;;;;;;;25.97;23.03;;;;;;;12.16;100.00;100545.56;5254332;28;20108;-72
2022/10/15 03:17:14;;;;;;;25.23;21.67;;;;;;;12.24;100.00;100552.03;5254985;28;20025;-71
2022/10/15 03:19:46;;;;;;;26.13;23.27;;;;;;;12.15;100.00;100550.94;5254040;28;20078;-71
2022/10/15 03:22:17;;;;;;;24.80;22.03;;;;;;;12.21;100.00;100547.84;5253932;28;20036;-71
2022/10/15 03:24:48;;;;;;;26.90;21.27;;;;;;;12.05;100.00;100538.44;5253223;28;20032;-71
2022/10/15 03:27:19;;;;;;;24.87;22.20;;;;;;;12.17;100.00;100551.63;5254338;28;20036;-72
2022/10/15 03:29:51;;;;;;;27.27;22.17;;;;;;;12.21;100.00;100550.47;5254441;28;20060;-72
2022/10/15 03:32:22;;;;;;;27.00;23.03;;;;;;;12.15;100.00;100548.31;5254734;28;20029;-72
2022/10/15 03:34:53;;;;;;;26.57;21.70;;;;;;;12.21;100.00;100545.22;5254528;28;20508;-72
2022/10/15 03:37:24;;;;;;;26.07;21.93;;;;;;;12.21;100.00;100548.72;5253633;28;20033;-72
2022/10/15 03:39:56;;;;;;;30.03;24.03;;;;;;;12.23;100.00;100548.59;5254147;28;20029;-72
2022/10/15 03:42:27;;;;;;;27.07;22.43;;;;;;;12.22;100.00;100545.13;5254238;28;20040;-71
2022/10/15 03:44:58;;;;;;;31.77;23.93;;;;;;;12.17;100.00;100541.13;5252935;28;20453;-72
2022/10/15 03:47:29;;;;;;;25.73;22.97;;;;;;;12.26;100.00;100540.50;5254255;28;20264;-72
2022/10/15 03:50:01;;;;;;;27.37;23.13;;;;;;;12.13;100.00;100527.38;5254257;28;20037;-71
2022/10/15 03:52:32;;;;;;;28.00;22.87;;;;;;;12.24;100.00;100536.28;5252486;28;20380;-72
2022/10/15 03:55:04;;;;;;;31.30;24.57;;;;;;;12.24;100.00;100531.88;5257604;28;20021;-71
2022/10/15 03:57:37;;;;;;;28.50;23.87;;;;;;;12.26;100.00;100529.13;5237438;28;20021;-71
2022/10/15 04:00:11;;;;;;;27.13;24.37;;;;;;;12.25;100.00;100530.94;5237542;28;20060;-72
2022/10/15 04:02:42;;;;;;;28.15;23.55;;;;;;;12.24;100.00;100539.75;5257058;28;20040;-71
2022/10/15 04:05:13;;;;;;;27.50;24.27;;;;;;;12.20;100.00;100540.94;5258087;28;20522;-71
2022/10/15 04:07:44;;;;;;;28.20;24.23;;;;;;;12.29;100.00;100545.50;5256579;28;20041;-72
2022/10/15 04:10:16;;;;;;;28.47;24.03;;;;;;;12.32;100.00;100545.28;5257282;28;20021;-72
2022/10/15 04:12:47;;;;;;;29.63;25.87;;;;;;;12.29;100.00;100534.16;5256260;28;20033;-72
2022/10/15 04:15:18;;;;;;;28.77;23.53;;;;;;;12.25;100.00;100538.81;5256886;28;20029;-72
2022/10/15 04:17:54;;;;;;;31.87;25.97;;;;;;;12.27;100.00;100539.53;5256387;28;20033;-72
2022/10/15 04:20:25;;;;;;;29.10;25.70;;;;;;;12.32;100.00;100547.91;5256172;28;20025;-71
2022/10/15 04:22:56;;;;;;;32.00;26.43;;;;;;;12.29;100.00;100539.41;5255796;28;20178;-71
2022/10/15 04:25:27;;;;;;;32.10;26.07;;;;;;;12.31;100.00;100548.03;5257065;28;20037;-72
2022/10/15 04:27:59;;;;;;;31.37;25.50;;;;;;;12.33;100.00;100556.63;5257176;28;20436;-72
2022/10/15 04:30:30;;;;;;;37.67;28.83;;;;;;;12.34;100.00;100548.66;5257033;28;20044;-71
2022/10/15 04:33:01;;;;;;;34.13;28.43;;;;;;;12.36;100.00;100558.22;5255926;28;20044;-72
2022/10/15 04:35:33;;;;;;;34.30;28.93;;;;;;;12.35;100.00;100539.00;5256002;28;20035;-72
2022/10/15 04:38:05;;;;;;;32.00;28.13;;;;;;;12.34;100.00;100532.88;5254124;28;20456;-72
2022/10/15 04:40:37;;;;;;;34.03;28.77;;;;;;;12.33;100.00;100536.47;5256691;28;20036;-71
2022/10/15 04:43:08;;;;;;;33.83;28.90;;;;;;;12.42;100.00;100542.00;5241698;28;20027;-72
2022/10/15 04:45:39;;;;;;;36.10;28.03;;;;;;;12.38;100.00;100530.88;5257887;28;20040;-70
2022/10/15 04:48:10;;;;;;;37.47;30.13;;;;;;;12.40;100.00;100530.78;5257315;28;20059;-70
2022/10/15 04:50:41;;;;;;;34.03;28.47;;;;;;;12.40;100.00;100541.28;5256229;28;20361;-71
2022/10/15 04:53:13;;;;;;;35.00;28.73;;;;;;;12.43;100.00;100538.41;5256101;28;20472;-71
2022/10/15 04:55:44;;;;;;;39.37;30.10;;;;;;;12.43;100.00;100535.78;5256661;28;20033;-71
2022/10/15 04:58:15;;;;;;;37.20;30.30;;;;;;;12.44;100.00;100532.22;5255723;28;20029;-72
2022/10/15 05:00:46;;;;;;;35.87;29.33;;;;;;;12.41;100.00;100527.22;5256198;28;20035;-72
2022/10/15 05:03:18;;;;;;;34.60;29.80;;;;;;;12.43;100.00;100530.53;5254987;28;20044;-72
2022/10/15 05:05:49;;;;;;;36.67;29.57;;;;;;;12.47;100.00;100532.00;5253845;28;20040;-72
2022/10/15 05:08:20;;;;;;;32.37;27.57;;;;;;;12.43;100.00;100531.38;5256588;28;20102;-72
2022/10/15 05:10:52;;;;;;;31.93;26.03;;;;;;;12.45;100.00;100533.91;5255609;28;20025;-72
2022/10/15 05:13:23;;;;;;;31.00;26.03;;;;;;;12.43;100.00;100530.53;5255845;28;20021;-72
2022/10/15 05:15:54;;;;;;;31.03;25.97;;;;;;;12.42;100.00;100544.63;5256166;28;20025;-72
2022/10/15 05:18:25;;;;;;;31.43;26.20;;;;;;;12.47;100.00;100545.13;5256586;28;20029;-72
2022/10/15 05:21:00;;;;;;;28.87;24.60;;;;;;;12.44;100.00;100543.56;5254803;28;20033;-72
2022/10/15 05:23:31;;;;;;;;;;;;;;;12.61;100.00;100551.16;5255468;28;20032;-71
2022/10/15 05:26:05;;;;;;;32.30;23.70;;;;;;;12.46;100.00;100535.59;5256290;28;19916;-71
2022/10/15 05:28:36;;;;;;;29.42;24.20;;;;;;;12.44;100.00;100543.56;5243163;28;20037;-71
2022/10/15 05:31:10;;;;;;;30.40;25.97;;;;;;;12.44;100.00;100548.81;5255193;28;20025;-71
2022/10/15 05:33:41;;;;;;;28.45;25.35;;;;;;;12.49;100.00;100545.03;5255879;28;20100;-71
2022/10/15 05:36:12;;;;;;;30.20;26.00;;;;;;;12.40;100.00;100546.53;5253208;28;20040;-71
2022/10/15 05:38:49;;;;;;;28.67;25.20;;;;;;;12.43;100.00;100546.28;5256214;28;20025;-72
2022/10/15 05:41:21;;;;;;;27.93;24.87;;;;;;;12.41;100.00;100540.34;5255648;28;20029;-71
2022/10/15 05:43:54;;;;;;;32.57;25.80;;;;;;;12.33;100.00;100541.72;5254752;28;20044;-71
2022/10/15 05:46:26;;;;;;;32.90;23.83;;;;;;;12.41;100.00;100537.72;5256282;28;20059;-71
2022/10/15 05:48:58;;;;;;;29.23;26.10;;;;;;;12.41;100.00;100535.09;5255952;28;20029;-71
2022/10/15 05:51:29;;;;;;;27.40;24.37;;;;;;;12.44;100.00;100535.69;5255062;28;20082;-71
2022/10/15 05:54:00;;;;;;;30.53;25.90;;;;;;;12.44;100.00;100532.22;5254552;28;20027;-71
2022/10/15 05:56:32;;;;;;;31.50;26.17;;;;;;;12.42;100.00;100523.63;5256188;28;20094;-71
2022/10/15 05:59:03;;;;;;;32.17;27.20;;;;;;;12.48;100.00;100528.41;5255684;28;20039;-71
2022/10/15 06:01:36;;;;;;;32.07;25.93;;;;;;;12.45;100.00;100533.91;5255368;28;20032;-71
2022/10/15 06:04:08;;;;;;;29.03;25.00;;;;;;;12.45;100.00;100532.13;5255378;28;20480;-71
2022/10/15 06:06:39;;;;;;;32.53;26.77;;;;;;;12.45;100.00;100532.13;5253710;28;20078;-71
2022/10/15 06:09:10;;;;;;;31.43;26.43;;;;;;;12.46;100.00;100535.59;5255353;28;20021;-71
2022/10/15 06:11:42;;;;;;;31.90;27.57;;;;;;;12.47;100.00;100537.25;5253975;28;20029;-71
2022/10/15 06:14:13;;;;;;;30.60;26.17;;;;;;;12.37;100.00;100541.50;5253805;28;20028;-71
2022/10/15 06:16:49;;;;;;;28.30;24.50;;;;;;;12.42;100.00;100534.97;5254933;28;20502;-71
2022/10/15 06:19:20;;;;;;;29.87;26.60;;;;;;;12.41;100.00;100532.47;5254215;28;20128;-71
2022/10/15 06:21:52;;;;;;;33.30;29.70;;;;;;;12.46;100.00;100540.84;5253693;28;20120;-71
2022/10/15 06:24:23;;;;;;;34.20;27.67;;;;;;;12.41;100.00;100530.66;5255100;28;20028;-71
2022/10/15 06:26:54;;;;;;;33.27;28.43;;;;;;;12.45;100.00;100540.00;5255173;28;20032;-71
2022/10/15 06:29:25;;;;;;;38.27;29.33;;;;;;;12.39;100.00;100529.09;5255167;28;20037;-71
2022/10/15 06:31:57;;;;;;;35.37;28.90;;;;;;;12.38;100.00;100532.66;5253410;28;20029;-71
2022/10/15 06:34:28;;;;;;;36.53;29.43;;;;;;;12.50;100.00;100536.22;5255445;28;20050;-71
2022/10/15 06:36:59;;;;;;;39.87;31.10;;;;;;;12.45;100.00;100539.16;5253606;28;20384;-71
2022/10/15 06:39:30;;;;;;;37.03;31.00;;;;;;;12.44;100.00;100537.47;5255174;28;20557;-71
2022/10/15 06:42:02;;;;;;;36.87;32.13;;;;;;;12.53;100.00;100544.66;5254825;28;20500;-72
2022/10/15 06:44:33;;;;;;;40.10;33.53;;;;;;;12.43;100.00;100530.53;5253748;28;20033;-71
2022/10/15 06:47:04;;;;;;;42.47;33.40;;;;;;;12.51;100.00;100532.63;5255170;28;20028;-71
2022/10/15 06:49:36;;;;;;;37.67;31.73;;;;;;;12.42;100.00;100523.63;5254205;28;20036;-71
2022/10/15 06:52:07;;;;;;;38.37;33.20;;;;;;;12.53;100.00;100533.34;5253198;28;20471;-71
2022/10/15 06:54:38;;;;;;;33.30;27.97;;;;;;;12.49;100.00;100529.25;5253866;28;20546;-71
2022/10/15 06:57:10;;;;;;;31.80;27.57;;;;;;;12.57;100.00;100538.25;5254964;28;20058;-71
2022/10/15 06:59:41;;;;;;;32.30;27.43;;;;;;;12.49;100.00;100526.63;5253176;28;20025;-71
2022/10/15 07:02:13;;;;;;;31.33;25.47;;;;;;;12.61;100.00;100532.78;5254198;28;20079;-71
2022/10/15 07:04:45;;;;;;;27.83;24.87;;;;;;;12.57;100.00;100530.38;5252982;28;20514;-71
2022/10/15 07:07:16;;;;;;;30.43;27.20;;;;;;;12.57;100.00;100532.16;5253231;28;20064;-71
2022/10/15 07:09:51;;;;;;;29.17;25.83;;;;;;;12.63;100.00;100536.97;5254908;28;20057;-71
2022/10/15 07:12:23;;;;;;;26.13;23.20;;;;;;;12.62;100.00;100537.91;5253705;28;20025;-71
2022/10/15 07:14:54;;;;;;;27.63;24.27;;;;;;;12.69;100.00;100546.16;5254465;28;20025;-71
2022/10/15 07:17:27;;;;;;;27.00;24.03;;;;;;;12.71;100.00;100549.53;5253284;28;20029;-71
2022/10/15 07:19:58;;;;;;;30.33;25.23;;;;;;;12.64;100.00;100551.78;5253684;28;20040;-71
2022/10/15 07:22:29;;;;;;;31.87;25.77;;;;;;;12.74;100.00;100544.03;5252013;28;20057;-71
2022/10/15 07:25:01;;;;;;;29.97;24.70;;;;;;;12.78;100.00;100537.63;5254148;28;20086;-71
2022/10/15 07:27:32;;;;;;;25.93;22.67;;;;;;;12.85;100.00;100524.00;5255006;28;20033;-71
2022/10/15 07:30:04;;;;;;;27.37;23.37;;;;;;;12.72;100.00;100501.31;5257477;28;20029;-71
2022/10/15 07:32:36;;;;;;;28.37;22.90;;;;;;;12.89;100.00;100513.19;5259062;28;20052;-71
2022/10/15 07:35:07;;;;;;;29.67;24.20;;;;;;;12.90;100.00;100498.22;5257056;28;20025;-71
2022/10/15 07:37:39;;;;;;;27.30;24.10;;;;;;;13.09;100.00;100508.19;5257470;28;20029;-71
2022/10/15 07:40:11;;;;;;;24.10;21.00;;;;;;;13.06;100.00;100504.00;5258555;28;20464;-71
2022/10/15 07:42:42;;;;;;;25.33;21.90;;;;;;;13.15;100.00;100506.88;5258434;28;20068;-71
2022/10/15 07:45:13;;;;;;;23.47;20.17;;;;;;;13.14;100.00;100507.84;5258530;28;20037;-71
2022/10/15 07:47:45;;;;;;;24.00;20.17;;;;;;;13.16;100.00;100501.50;5257041;28;20033;-71
2022/10/15 07:50:16;;;;;;;21.40;18.30;;;;;;;13.17;100.00;100508.44;5256467;28;20037;-71
2022/10/15 07:52:47;;;;;;;22.70;19.33;;;;;;;13.19;100.00;100497.81;5258200;28;20112;-71
2022/10/15 07:55:19;;;;;;;21.73;19.37;;;;;;;13.35;100.00;100501.91;5257603;28;20415;-72
2022/10/15 07:57:50;;;;;;;21.07;18.80;;;;;;;13.50;100.00;100495.44;5256544;28;20028;-72
2022/10/15 08:00:21;;;;;;;21.13;17.23;;;;;;;13.54;100.00;100493.44;5257797;28;20414;-72
2022/10/15 08:02:52;;;;;;;25.50;17.90;;;;;;;13.60;100.00;100489.47;5257603;28;20466;-71
2022/10/15 08:05:24;;;;;;;18.93;15.93;;;;;;;13.57;100.00;100489.72;5255767;28;20238;-72
2022/10/15 08:07:55;;;;;;;21.33;14.43;;;;;;;13.62;100.00;100484.94;5256618;28;20033;-72
2022/10/15 08:10:27;;;;;;;16.47;14.77;;;;;;;13.69;100.00;100496.66;5257396;28;20036;-72
2022/10/15 08:12:58;;;;;;;16.37;12.47;;;;;;;13.93;100.00;100482.50;5256590;28;20043;-73
2022/10/15 08:15:29;;;;;;;14.93;12.67;;;;;;;14.05;100.00;100483.28;5257949;28;20337;-72
2022/10/15 08:18:00;;;;;;;14.97;12.97;;;;;;;14.08;100.00;100487.50;5257803;28;20045;-72
2022/10/15 08:20:32;;;;;;;15.00;11.53;;;;;;;14.06;100.00;100476.25;5255761;28;20032;-72
2022/10/15 08:23:04;;;;;;;14.37;12.57;;;;;;;14.09;100.00;100486.53;5256856;28;20037;-72
2022/10/15 08:25:35;;;;;;;13.27;11.93;;;;;;;14.18;100.00;100479.66;5257162;28;20223;-72
2022/10/15 08:28:09;;;;;;;13.80;11.27;;;;;;;14.25;100.00;100491.38;5257627;28;20131;-72
2022/10/15 08:30:40;;;;;;;12.70;10.23;;;;;;;14.19;100.00;100473.47;5257676;28;20502;-72
2022/10/15 08:33:12;;;;;;;12.33;10.73;;;;;;;14.23;100.00;100493.31;5257447;28;20071;-72
2022/10/15 08:35:43;;;;;;;11.00;9.60;;;;;;;14.17;100.00;100488.53;5254444;28;20024;-72
2022/10/15 08:38:14;;;;;;;11.17;9.30;;;;;;;14.15;100.00;100475.50;5255945;28;20063;-73
2022/10/15 08:40:49;;;;;;;11.00;9.17;;;;;;;14.20;100.00;100478.59;5254960;28;20494;-73
2022/10/15 08:43:49;;;;;;;9.40;7.77;;;;;;;14.29;100.00;100463.84;5260623;28;20020;-72
2022/10/15 08:46:43;;;;;;;11.13;8.40;;;;;;;14.32;100.00;100466.22;5257404;28;20032;-72
2022/10/15 08:49:31;;;;;;;9.73;7.13;;;;;;;14.32;100.00;100465.38;5256132;28;20029;-72
2022/10/15 08:52:16;;;;;;;9.07;7.50;;;;;;;14.35;100.00;100459.84;5252433;28;20039;-72
2022/10/15 08:54:47;;;;;;;7.95;6.55;;;;;;;14.35;100.00;100459.84;5255194;28;20040;-72
2022/10/15 08:57:44;;;;;;;8.27;6.40;;;;;;;14.40;100.00;100457.66;5250422;28;20025;-74
2022/10/15 09:00:29;;;;;;;9.33;7.43;;;;;;;14.32;100.00;100446.94;5267351;28;20029;-72
2022/10/15 09:03:04;;;;;;;;;;;;;;;14.49;100.00;100440.28;5256211;28;20080;-72
2022/10/15 09:05:54;;;;;;;8.65;6.30;;;;;;;14.38;100.00;100435.91;5255115;28;20374;-72
2022/10/15 09:08:37;;;;;;;11.80;7.83;;;;;;;14.38;100.00;100431.47;5254760;28;20044;-74
2022/10/15 09:11:22;;;;;;;7.40;6.57;;;;;;;14.40;100.00;100421.63;5254556;28;20029;-72
2022/10/15 09:13:54;;;;;;;7.80;6.13;;;;;;;14.36;100.00;100430.78;5254216;28;20439;-73
2022/10/15 09:16:33;;;;;;;6.93;6.13;;;;;;;14.37;100.00;100426.31;5254473;28;20029;-72
2022/10/15 09:19:16;;;;;;;7.23;6.20;;;;;;;14.35;100.00;100437.00;5254832;28;20041;-72
2022/10/15 09:21:49;;;;;;;8.07;5.90;;;;;;;14.29;100.00;100421.69;5255118;28;20041;-72
2022/10/15 09:24:23;;;;;;;9.77;6.00;;;;;;;14.43;100.00;100424.97;5256081;28;20056;-72
2022/10/15 09:27:18;;;;;;;9.40;6.88;;;;;;;14.39;100.00;100430.50;5255540;28;20336;-72
2022/10/15 09:30:03;;;;;;;9.68;6.95;;;;;;;14.43;100.00;100435.53;5256355;28;20067;-72
2022/10/15 09:32:41;;;;;;;5.97;5.25;;;;;;;14.40;100.00;100421.63;5256699;28;20060;-72
2022/10/15 09:35:23;;;;;;;7.03;5.93;;;;;;;14.44;100.00;100430.13;5254998;28;20036;-72
2022/10/15 09:38:13;;;;;;;8.13;4.77;;;;;;;14.47;100.00;100431.69;5253991;28;20059;-72
2022/10/15 09:41:16;;;;;;;6.37;4.50;;;;;;;14.44;100.00;100427.50;5256187;28;20032;-73
2022/10/15 09:43:51;;;;;;;7.60;4.40;;;;;;;14.42;100.00;100420.69;5252923;28;20392;-73
2022/10/15 09:46:22;;;;;;;6.87;4.57;;;;;;;14.35;100.00;100415.06;5256305;28;20029;-72
2022/10/15 09:49:09;;;;;;;8.13;3.83;;;;;;;14.34;100.00;100426.59;5254956;28;20398;-72
2022/10/15 09:51:44;;;;;;;6.13;4.27;;;;;;;14.27;100.00;100419.19;5255305;28;20040;-73
2022/10/15 09:54:21;;;;;;;;;;;;;;;14.46;100.00;100415.03;5256971;28;20067;-72
2022/10/15 09:56:55;;;;;;;4.50;3.50;;;;;;;14.32;100.00;100402.16;5254845;28;19917;-73
2022/10/15 09:59:27;;;;;;;4.75;3.65;;;;;;;14.31;100.00;100405.78;5256443;28;20037;-72
2022/10/15 10:02:18;;;;;;;5.80;3.43;;;;;;;14.36;100.00;100404.44;5255538;28;20025;-72
2022/10/15 10:04:51;;;;;;;5.20;3.10;;;;;;;14.43;100.00;100409.19;5253404;28;20037;-73
2022/10/15 10:07:37;;;;;;;4.87;4.00;;;;;;;14.46;100.00;100404.50;5255873;28;20032;-73
2022/10/15 10:10:24;;;;;;;6.20;3.87;;;;;;;14.52;100.00;100400.50;5254744;28;20029;-72
2022/10/15 10:12:57;;;;;;;6.73;3.10;;;;;;;14.47;100.00;100402.69;5255398;28;20024;-73
2022/10/15 10:15:41;;;;;;;5.47;3.43;;;;;;;14.54;100.00;100395.94;5255417;28;20052;-73
2022/10/15 10:18:24;;;;;;;3.83;2.70;;;;;;;14.59;100.00;100406.91;5253223;28;20033;-73
2022/10/15 10:21:01;;;;;;;3.10;2.63;;;;;;;14.58;100.00;100404.41;5252344;28;20032;-72
2022/10/15 10:23:38;;;;;;;5.73;2.50;;;;;;;14.61;100.00;100407.63;5255980;28;20036;-73
2022/10/15 10:26:10;;;;;;;4.00;2.20;;;;;;;14.68;100.00;100407.13;5255247;28;20036;-72
2022/10/15 10:28:49;;;;;;;3.30;2.10;;;;;;;14.60;100.00;100376.13;5255785;28;20057;-73
2022/10/15 10:31:30;;;;;;;5.07;2.03;;;;;;;14.74;100.00;100412.72;5253791;28;20519;-73
2022/10/15 10:34:02;;;;;;;2.07;1.60;;;;;;;14.70;100.00;100399.91;5254104;28;20060;-73
2022/10/15 10:36:35;;;;;;;2.53;1.60;;;;;;;14.80;100.00;100395.50;5258388;28;20565;-73
2022/10/15 10:39:12;;;;;;;2.20;1.37;;;;;;;14.89;100.00;100407.09;5255073;28;20029;-73
2022/10/15 10:41:58;;;;;;;2.20;1.97;;;;;;;14.88;100.00;100410.72;5254998;28;20033;-73
2022/10/15 10:44:37;;;;;;;5.23;1.60;;;;;;;14.93;100.00;100410.31;5255147;28;20687;-73
2022/10/15 10:47:15;;;;;;;3.37;1.10;;;;;;;14.95;100.00;100403.97;5255203;28;20086;-73
2022/10/15 10:49:50;;;;;;;1.90;1.17;;;;;;;15.08;100.00;100413.47;5254147;28;20049;-73
2022/10/15 10:52:33;;;;;;;2.50;1.27;;;;;;;15.07;100.00;100406.50;5255275;28;20064;-73
2022/10/15 10:55:16;;;;;;;3.43;1.37;;;;;;;15.13;100.00;100392.81;5254981;28;20053;-73
2022/10/15 10:57:53;;;;;;;1.23;1.07;;;;;;;15.10;100.00;100403.59;5255180;28;20033;-73
2022/10/15 11:00:41;;;;;;;2.10;1.07;;;;;;;15.19;100.00;100404.59;5254902;28;20053;-73
2022/10/15 11:03:21;;;;;;;2.67;1.20;;;;;;;15.16;100.00;100395.16;5257022;28;20049;-73
2022/10/15 11:06:00;;;;;;;1.70;1.30;;;;;;;15.21;100.00;100392.97;5258718;28;20021;-73
2022/10/15 11:09:03;;;;;;;3.23;1.50;;;;;;;15.19;100.00;100392.25;5257845;28;20028;-73
2022/10/15 11:11:50;;;;;;;2.07;1.27;;;;;;;15.30;100.00;100390.47;5259547;28;20021;-73
2022/10/15 11:15:14;;;;;;;2.60;1.30;;;;;;;15.35;100.00;100385.63;5258031;28;20422;-72
2022/10/15 11:18:03;;;;;;;3.27;1.50;;;;;;;15.33;100.00;100385.78;5259465;28;20478;-72
2022/10/15 11:20:53;;;;;;;2.40;1.27;;;;;;;15.35;100.00;100386.47;5258476;28;20040;-73
2022/10/15 11:23:56;;;;;;;3.67;1.97;;;;;;;15.43;100.00;100387.63;5259239;28;20025;-72
2022/10/15 11:26:47;;;;;;;1.97;1.27;;;;;;;15.43;100.00;100380.50;5257596;28;20056;-73
2022/10/15 11:29:56;;;;;;;2.80;1.40;;;;;;;15.53;100.00;100385.00;5258953;28;20029;-73
2022/10/15 11:32:39;;;;;;;3.70;1.50;;;;;;;15.53;100.00;100387.63;5259474;28;20111;-73
2022/10/15 11:35:32;;;;;;;2.83;1.50;;;;;;;15.56;100.00;100387.34;5257771;28;20021;-73
2022/10/15 11:38:23;;;;;;;2.20;1.00;;;;;;;15.58;100.00;100388.06;5258376;28;20025;-74
2022/10/15 11:41:16;;;;;;;4.43;1.50;;;;;;;15.59;100.00;100390.56;5258529;28;20048;-74
2022/10/15 11:44:36;;;;;;;2.70;1.23;;;;;;;15.68;100.00;100393.34;5257041;28;20123;-73
2022/10/15 11:47:25;;;;;;;2.43;1.20;;;;;;;15.57;100.00;100386.38;5233877;28;20037;-73